📊 John's Weather Station

Last reading: 2021-12-05 23:57:30

TEMPERATURE

--

Temperature 20 readings
Min Max Average
19.80 °C 21.61 °C 20.49 °C

HUMIDITY

--

Humidity 20 readings
Min Max Average
80.05 % 83.63 % 82.04 %

View Latest 20 Readings

ID Sensor Location Temp Humid Bar Timestamp
94413 BME280 Lounge 19.80 83.63 1016.26 2021-12-05 23:57:30
94412 BME280 Lounge 19.85 83.56 1016.31 2021-12-05 23:47:54
94411 BME280 Lounge 19.87 83.47 1016.35 2021-12-05 23:38:17
94410 BME280 Lounge 19.87 83.44 1016.31 2021-12-05 23:28:42
94409 BME280 Lounge 19.86 83.30 1016.23 2021-12-05 23:19:06
94408 BME280 Lounge 19.90 83.14 1016.21 2021-12-05 23:09:32
94407 BME280 Lounge 19.91 82.93 1016.29 2021-12-05 22:59:55
94406 BME280 Lounge 20.02 82.79 1016.42 2021-12-05 22:50:20
94405 BME280 Lounge 20.03 82.59 1016.32 2021-12-05 22:40:44
94404 BME280 Lounge 20.16 82.39 1016.39 2021-12-05 22:31:09
94403 BME280 Lounge 20.37 82.15 1016.41 2021-12-05 22:21:34
94402 BME280 Lounge 20.38 81.87 1016.34 2021-12-05 22:11:58
94401 BME280 Lounge 20.57 81.52 1016.26 2021-12-05 22:02:23
94400 BME280 Lounge 20.83 81.20 1016.22 2021-12-05 21:52:49
94399 BME280 Lounge 21.07 80.95 1016.17 2021-12-05 21:43:13
94398 BME280 Lounge 21.30 80.79 1016.10 2021-12-05 21:33:37
94397 BME280 Lounge 21.40 80.53 1015.96 2021-12-05 21:24:00
94396 BME280 Lounge 21.45 80.37 1015.87 2021-12-05 21:14:25
94395 BME280 Lounge 21.50 80.20 1015.85 2021-12-05 21:04:49
94394 BME280 Lounge 21.61 80.05 1015.76 2021-12-05 20:55:14